Wellington, Ohio
Current Conditions -  °F | °C
As of 12:53 AM on Friday 31 Oct 2014 (Local Time) from KLPR Reporting Station
Overcast Overcast  
Wind Chill: 40°   Ceiling: 4600
Heat Index: 43°   Visibility: 10mi
Dew Point: 38°   Wind: 5mph
Humidity: 82%   Direction: 210°SSW
Pressure: 30.03"   Gusts: NA
Location:  41.17°N, 82.22°W
Report Text: KLPR 310453Z AUTO 21004KT 10SM OVC046 06/03 A3003 RMK AO2 SLP171 T00610033 400940044 TSNO
Loading
Personal Weather Stations






























Interactive Weather Map
Tropical Storm Tracking
New forecast layout! Learn more

10-Day Weather Forecast

Advertisements
Track Severe Weather on mobile